Arthur, IA

3:27 PM CDT on September 20, 2014 (GMT -0500)
Oxendales Arthur, IA | Change Station
CLOSE
Current Station
Personal Weather Station
Location: Arthur, IA
Elevation: 1496 ft
Nearby Weather Stations

Elev 1496 ft 42.28 °N, 95.36 °W | Updated 1 minute ago

Clear
Clear
80.1 °F
Feels Like 82 °F
N
4.0
Wind Variable Wind from West
Gusts 5.6 mph

Today
High -- | Low -- °F
--% Chance of Precip.
Yesterday
High -- | Low -- °F
Precip. -- in
7:06 AM 7:22 PM
Waning Crescent, 10% visible
Pressure 29.90 in
Visibility 10.0 miles
Clouds Clear
Heat Index 82 °F
Dew Point 66 °F
Humidity 62%
Rainfall 1.35 in
Snow Depth Not available.
UV 5 out of 12
Pollen 5.70 out of 12
Air Quality Not available.
Flu Activity Not available.
METAR KDNS 202015Z AUTO 31008G13KT 10SM CLR 27/15 A2990 RMK AO2

More Conditions Fewer Conditions

Pressure 29.90 in
Visibility 10.0 miles
Clouds Clear
Heat Index 82 °F
Dew Point 66 °F
Humidity 62%
Rainfall 1.35 in
Snow Depth Not available.
UV 5 out of 12
Pollen 5.70 out of 12
Air Quality Not available.
Flu Activity Not available.
METAR KDNS 202015Z AUTO 31008G13KT 10SM CLR 27/15 A2990 RMK AO2

More Conditions Fewer Conditions

10-Day Weather Forecast

Almanac

Astronomy

Sep. 20, 2014 Rise Set
Actual Time 7:06 AM CDT 7:22 PM CDT
Civil Twilight 6:38 AM CDT 7:50 PM CDT
Nautical Twilight 6:05 AM CDT 8:23 PM CDT
Astronomical Twilight 5:31 AM CDT 8:56 PM CDT
Moon 3:43 AM CDT 5:28 PM CDT
Length of Visible Light 13h 11m
Length of Day
12h 15m
Tomorrow will be 2m 50s shorter.
Waning Crescent, 10% of the Moon is Illuminated
Today
Waning Crescent
Sep 24
New
Oct 1
First Quarter
Oct 8
Full
Oct 15
Last Quarter

Today's Extremes

State Highs State Lows

Community

WunderPhotos

Upload Photos

1,754,937 photos uploaded!

WunderBlogs® & News

Nearby

Snow Depth

Station Depth Elevation
No new snow has been reported.

Earthquake Activity

City Distance Mag. Time & Date
No recent earthquake activity has been reported nearby.
Minimum magnitude displayed is 2.5.

Coastal Water Temperatures

Place Temperature
No Stations Reporting

Nearby Weather Stations